Time;durP1;ratioP1;P1;durP2;ratioP2;P2;SDS_P1;SDS_P2;PMS_P1;PMS_P2;Temp;Humidity;BMP_temperature;BMP_pressure;BME280_temperature;BME280_humidity;BME280_pressure;Samples;Min_cycle;Max_cycle;Signal;HPM_P1;HPM_P2
2023/05/16 00:00:54;;;;;;;8.63;4.50;;;;;;;;;;5078061;28;20025;-87
2023/05/16 00:03:20;;;;;;;7.80;4.07;;;;;;;;;;5083262;28;20483;-87
2023/05/16 00:05:45;;;;;;;10.02;5.25;;;;;;;;;;5077750;28;20028;-86
2023/05/16 00:08:14;;;;;;;8.25;5.53;;;;;;;;;;5073388;28;20540;-86
2023/05/16 00:10:42;;;;;;;8.43;4.05;;;;;;;;;;5068156;28;20036;-87
2023/05/16 00:13:12;;;;;;;6.95;4.97;;;;;;;;;;5115616;27;20036;-87
2023/05/16 00:15:38;;;;;;;10.02;5.10;;;;;;;;;;5081021;28;20031;-86
2023/05/16 00:18:04;;;;;;;6.78;4.25;;;;;;;;;;5087109;28;20814;-87
2023/05/16 00:20:35;;;;;;;6.15;3.65;;;;;;;;;;5083646;28;20033;-88
2023/05/16 00:23:01;;;;;;;8.80;4.57;;;;;;;;;;5085790;28;20024;-87
2023/05/16 00:25:27;;;;;;;6.68;4.53;;;;;;;;;;5083360;28;20601;-86
2023/05/16 00:27:58;;;;;;;5.80;3.60;;;;;;;;;;5070385;28;20039;-86
2023/05/16 00:30:24;;;;;;;9.55;5.65;;;;;;;;;;5083707;28;20028;-86
2023/05/16 00:32:52;;;;;;;8.88;3.50;;;;;;;;;;5075203;28;20069;-88
2023/05/16 00:35:17;;;;;;;8.75;3.88;;;;;;;;;;5078763;28;20028;-87
2023/05/16 00:37:46;;;;;;;8.75;4.13;;;;;;;;;;5081598;28;20048;-86
2023/05/16 00:40:11;;;;;;;8.02;4.15;;;;;;;;;;5068919;28;20044;-85
2023/05/16 00:42:38;;;;;;;8.70;4.45;;;;;;;;;;5079970;28;20416;-85
2023/05/16 00:45:05;;;;;;;6.35;3.85;;;;;;;;;;5081227;28;20537;-86
2023/05/16 00:47:31;;;;;;;13.25;4.32;;;;;;;;;;5080902;28;20036;-86
2023/05/16 00:49:57;;;;;;;9.73;4.97;;;;;;;;;;5083818;28;20036;-87
2023/05/16 00:52:23;;;;;;;8.07;3.88;;;;;;;;;;5077824;28;20028;-86
2023/05/16 00:54:51;;;;;;;7.43;3.65;;;;;;;;;;5080342;28;20039;-86
2023/05/16 00:57:17;;;;;;;10.80;4.35;;;;;;;;;;5072987;28;20467;-87
2023/05/16 00:59:45;;;;;;;6.60;3.92;;;;;;;;;;5079305;28;20097;-86
2023/05/16 01:02:11;;;;;;;8.60;4.93;;;;;;;;;;5079837;28;20048;-86
2023/05/16 01:04:37;;;;;;;10.15;4.93;;;;;;;;;;5078762;28;20027;-85
2023/05/16 01:07:04;;;;;;;7.57;4.72;;;;;;;;;;5077317;28;20383;-87
2023/05/16 01:09:30;;;;;;;7.40;4.75;;;;;;;;;;5088092;28;20032;-86
2023/05/16 01:12:15;;;;;;;6.85;4.13;;;;;;;;;;5075928;28;20032;-87
2023/05/16 01:14:55;;;;;;;6.57;3.35;;;;;;;;;;5081291;28;20064;-89
2023/05/16 01:17:32;;;;;;;9.65;5.35;;;;;;;;;;5078988;28;20101;-88
2023/05/16 01:20:14;;;;;;;7.03;4.63;;;;;;;;;;5072608;28;20032;-88
2023/05/16 01:22:50;;;;;;;8.95;5.53;;;;;;;;;;5082329;28;20109;-85
2023/05/16 01:25:35;;;;;;;7.93;5.40;;;;;;;;;;5083007;28;20027;-86
2023/05/16 01:28:08;;;;;;;11.65;6.05;;;;;;;;;;5089478;28;20491;-87
2023/05/16 01:30:35;;;;;;;8.20;4.75;;;;;;;;;;5080012;28;20396;-86
2023/05/16 01:33:01;;;;;;;8.88;4.32;;;;;;;;;;5075315;28;20047;-85
2023/05/16 01:35:27;;;;;;;6.85;4.70;;;;;;;;;;5075584;28;20396;-87
2023/05/16 01:38:17;;;;;;;9.23;5.10;;;;;;;;;;5080726;28;20051;-90
2023/05/16 01:41:05;;;;;;;11.13;5.15;;;;;;;;;;5076421;28;20043;-88
2023/05/16 01:43:39;;;;;;;9.57;6.32;;;;;;;;;;5082725;28;20024;-88
2023/05/16 01:46:12;;;;;;;10.57;6.18;;;;;;;;;;5070271;28;20028;-87
2023/05/16 01:48:57;;;;;;;11.30;6.57;;;;;;;;;;5085998;28;20043;-87
2023/05/16 01:51:29;;;;;;;9.40;5.75;;;;;;;;;;5080969;28;20025;-86
2023/05/16 01:54:04;;;;;;;10.60;5.88;;;;;;;;;;5078519;28;20097;-86
2023/05/16 01:56:31;;;;;;;9.00;5.70;;;;;;;;;;5077231;28;20036;-87
2023/05/16 01:59:01;;;;;;;8.65;5.60;;;;;;;;;;5075071;28;20464;-86
2023/05/16 02:01:26;;;;;;;11.20;5.55;;;;;;;;;;5082256;28;20028;-86
2023/05/16 02:03:52;;;;;;;8.35;5.65;;;;;;;;;;5077819;28;20047;-87
2023/05/16 02:06:17;;;;;;;10.57;5.88;;;;;;;;;;5083444;28;20426;-86
2023/05/16 02:08:43;;;;;;;14.65;4.82;;;;;;;;;;5079893;28;20059;-87
2023/05/16 02:11:08;;;;;;;5.50;4.13;;;;;;;;;;5075157;28;20032;-87
2023/05/16 02:13:34;;;;;;;7.80;4.25;;;;;;;;;;5081109;28;20040;-89
2023/05/16 02:16:03;;;;;;;13.27;6.40;;;;;;;;;;5080873;28;20487;-87
2023/05/16 02:18:30;;;;;;;9.68;5.88;;;;;;;;;;5074105;28;20071;-87
2023/05/16 02:21:01;;;;;;;6.65;5.03;;;;;;;;;;5072480;28;20372;-88
2023/05/16 02:23:30;;;;;;;6.68;4.82;;;;;;;;;;5080129;28;20460;-87
2023/05/16 02:25:55;;;;;;;8.90;4.65;;;;;;;;;;5077342;28;20032;-87
2023/05/16 02:28:24;;;;;;;7.68;4.95;;;;;;;;;;5074029;28;20059;-86
2023/05/16 02:30:57;;;;;;;8.20;4.50;;;;;;;;;;5077214;28;20032;-88
2023/05/16 02:33:23;;;;;;;8.27;4.18;;;;;;;;;;5076493;28;20062;-86
2023/05/16 02:35:51;;;;;;;13.07;5.65;;;;;;;;;;5075973;28;20119;-87
2023/05/16 02:38:19;;;;;;;10.30;5.32;;;;;;;;;;5108363;27;20495;-86
2023/05/16 02:40:47;;;;;;;6.47;4.00;;;;;;;;;;5077598;28;20048;-87
2023/05/16 02:43:13;;;;;;;7.78;4.03;;;;;;;;;;5067268;28;20472;-86
2023/05/16 02:45:39;;;;;;;7.05;4.72;;;;;;;;;;5073902;28;20040;-87
2023/05/16 02:48:07;;;;;;;14.35;4.80;;;;;;;;;;5079106;28;20024;-85
2023/05/16 02:50:33;;;;;;;10.65;5.65;;;;;;;;;;5081518;28;20032;-87
2023/05/16 02:53:01;;;;;;;8.13;5.95;;;;;;;;;;5074149;28;20050;-86
2023/05/16 02:55:29;;;;;;;6.68;4.82;;;;;;;;;;5072554;28;20016;-87
2023/05/16 02:57:55;;;;;;;7.75;5.03;;;;;;;;;;5074503;28;20028;-88
2023/05/16 03:00:28;;;;;;;9.57;4.85;;;;;;;;;;5071702;28;20488;-89
2023/05/16 03:02:54;;;;;;;10.65;4.97;;;;;;;;;;5074685;28;20052;-88
2023/05/16 03:05:19;;;;;;;9.27;5.15;;;;;;;;;;5075493;28;20527;-86
2023/05/16 03:07:45;;;;;;;8.43;5.35;;;;;;;;;;5079331;28;20042;-86
2023/05/16 03:10:11;;;;;;;10.95;5.65;;;;;;;;;;5073053;28;20040;-86
2023/05/16 03:12:36;;;;;;;9.85;5.97;;;;;;;;;;5080137;28;20130;-86
2023/05/16 03:15:04;;;;;;;7.57;4.93;;;;;;;;;;5075477;28;20025;-87
2023/05/16 03:17:30;;;;;;;8.43;6.35;;;;;;;;;;5078044;28;20035;-86
2023/05/16 03:19:56;;;;;;;8.40;5.50;;;;;;;;;;5077600;28;20023;-87
2023/05/16 03:22:21;;;;;;;9.27;6.15;;;;;;;;;;5081001;28;20115;-86
2023/05/16 03:24:49;;;;;;;8.32;5.65;;;;;;;;;;5081156;28;20028;-88
2023/05/16 03:27:26;;;;;;;7.82;5.18;;;;;;;;;;5077888;28;20020;-87
2023/05/16 03:29:51;;;;;;;14.68;5.38;;;;;;;;;;5077259;28;20465;-88
2023/05/16 03:32:26;;;;;;;9.15;5.85;;;;;;;;;;5076040;28;20081;-86
2023/05/16 03:34:54;;;;;;;7.07;4.32;;;;;;;;;;5075056;28;20023;-86
2023/05/16 03:37:19;;;;;;;7.60;5.10;;;;;;;;;;5080134;28;20036;-87
2023/05/16 03:39:45;;;;;;;13.02;5.70;;;;;;;;;;5071738;28;20040;-87
2023/05/16 03:42:11;;;;;;;13.20;6.07;;;;;;;;;;5073124;28;20111;-87
2023/05/16 03:44:39;;;;;;;8.00;5.80;;;;;;;;;;5072905;28;20488;-86
2023/05/16 03:47:07;;;;;;;13.32;5.85;;;;;;;;;;5080826;28;20024;-87
2023/05/16 03:49:32;;;;;;;9.20;5.82;;;;;;;;;;5072558;28;20038;-86
2023/05/16 03:51:58;;;;;;;8.02;5.18;;;;;;;;;;5076717;28;20028;-87
2023/05/16 03:54:23;;;;;;;11.65;4.72;;;;;;;;;;5079366;28;20059;-89
2023/05/16 03:56:49;;;;;;;10.05;6.00;;;;;;;;;;5076918;28;20031;-87
2023/05/16 03:59:15;;;;;;;8.75;4.68;;;;;;;;;;5082561;28;20028;-88
2023/05/16 04:01:41;;;;;;;8.18;5.70;;;;;;;;;;5075892;28;20104;-88
2023/05/16 04:04:06;;;;;;;8.18;5.18;;;;;;;;;;5075244;28;20120;-85
2023/05/16 04:06:33;;;;;;;7.18;4.80;;;;;;;;;;5072365;28;20437;-87
2023/05/16 04:08:58;;;;;;;6.22;4.45;;;;;;;;;;5073104;28;20024;-87
2023/05/16 04:11:25;;;;;;;7.97;4.47;;;;;;;;;;5084207;28;20028;-86
2023/05/16 04:13:52;;;;;;;5.00;3.97;;;;;;;;;;5082768;28;20553;-86
2023/05/16 04:16:24;;;;;;;12.63;6.20;;;;;;;;;;5078470;28;20020;-87
2023/05/16 04:18:53;;;;;;;7.80;4.75;;;;;;;;;;5072860;28;20032;-86
2023/05/16 04:21:18;;;;;;;7.93;5.15;;;;;;;;;;5069285;28;20043;-87
2023/05/16 04:23:44;;;;;;;6.47;4.57;;;;;;;;;;5077291;28;20028;-87
2023/05/16 04:26:09;;;;;;;7.03;4.95;;;;;;;;;;5073497;28;20119;-87
2023/05/16 04:28:38;;;;;;;5.70;4.15;;;;;;;;;;5080665;28;20131;-86
2023/05/16 04:31:04;;;;;;;7.70;4.47;;;;;;;;;;5085196;28;20464;-87
2023/05/16 04:33:30;;;;;;;7.72;4.50;;;;;;;;;;5085936;28;20035;-87
2023/05/16 04:36:06;;;;;;;7.03;4.13;;;;;;;;;;5082605;28;20025;-88
2023/05/16 04:38:39;;;;;;;5.45;4.25;;;;;;;;;;5074045;28;20039;-87
2023/05/16 04:41:04;;;;;;;5.60;4.00;;;;;;;;;;5075508;28;20038;-86
2023/05/16 04:43:30;;;;;;;6.93;4.03;;;;;;;;;;5080207;28;20032;-87
2023/05/16 04:45:57;;;;;;;8.02;3.72;;;;;;;;;;5077076;28;20028;-88
2023/05/16 04:48:23;;;;;;;4.65;3.22;;;;;;;;;;5083187;28;20038;-87
2023/05/16 04:50:51;;;;;;;7.03;4.28;;;;;;;;;;5073852;28;20033;-86
2023/05/16 04:53:17;;;;;;;8.10;4.25;;;;;;;;;;5085706;28;20020;-86
2023/05/16 04:55:46;;;;;;;5.30;4.20;;;;;;;;;;5077010;28;20030;-87
2023/05/16 04:58:12;;;;;;;6.28;4.32;;;;;;;;;;5081002;28;20103;-87
2023/05/16 05:00:38;;;;;;;6.75;4.30;;;;;;;;;;5117112;27;20064;-86
2023/05/16 05:03:03;;;;;;;8.38;4.95;;;;;;;;;;5083914;28;20024;-87
2023/05/16 05:05:29;;;;;;;6.82;4.50;;;;;;;;;;5073911;28;20028;-85
2023/05/16 05:07:54;;;;;;;9.88;6.07;;;;;;;;;;5083970;28;20028;-87
2023/05/16 05:10:20;;;;;;;9.10;6.25;;;;;;;;;;5072635;28;20116;-85
2023/05/16 05:12:45;;;;;;;9.82;5.78;;;;;;;;;;5082927;28;20027;-86
2023/05/16 05:15:12;;;;;;;9.63;4.20;;;;;;;;;;5077796;28;20104;-86
2023/05/16 05:17:37;;;;;;;4.93;3.60;;;;;;;;;;5081558;28;20099;-86
2023/05/16 05:20:05;;;;;;;6.45;4.68;;;;;;;;;;5082146;28;20428;-86
2023/05/16 05:22:31;;;;;;;8.73;5.05;;;;;;;;;;5079778;28;20044;-87
2023/05/16 05:24:57;;;;;;;7.68;4.90;;;;;;;;;;5075747;28;20036;-87
2023/05/16 05:27:22;;;;;;;11.07;4.75;;;;;;;;;;5071625;28;20150;-86
2023/05/16 05:29:47;;;;;;;6.72;4.55;;;;;;;;;;5082343;28;20028;-88
2023/05/16 05:32:15;;;;;;;6.85;5.53;;;;;;;;;;5090830;28;20387;-85
2023/05/16 05:34:43;;;;;;;5.95;4.03;;;;;;;;;;5080982;28;20047;-86
2023/05/16 05:37:09;;;;;;;7.32;4.32;;;;;;;;;;5083749;28;20039;-85
2023/05/16 05:39:35;;;;;;;8.23;4.90;;;;;;;;;;5079727;28;20055;-85
2023/05/16 05:42:10;;;;;;;7.07;5.10;;;;;;;;;;5080302;28;20454;-86
2023/05/16 05:44:36;;;;;;;7.30;5.40;;;;;;;;;;5074267;28;20567;-86
2023/05/16 05:47:05;;;;;;;8.85;6.28;;;;;;;;;;5082453;28;20062;-86
2023/05/16 05:49:31;;;;;;;9.02;5.72;;;;;;;;;;5082060;28;20490;-86
2023/05/16 05:51:57;;;;;;;12.57;7.68;;;;;;;;;;5081046;28;20043;-86
2023/05/16 05:54:22;;;;;;;7.57;5.43;;;;;;;;;;5080072;28;20036;-86
2023/05/16 05:56:50;;;;;;;9.43;5.72;;;;;;;;;;5077961;28;20396;-90
2023/05/16 06:00:03;;;;;;;11.15;5.97;;;;;;;;;;5074586;28;20028;-88
2023/05/16 06:02:47;;;;;;;7.57;5.50;;;;;;;;;;5077695;28;20040;-86
2023/05/16 06:05:15;;;;;;;7.40;4.85;;;;;;;;;;5077181;28;20441;-87
2023/05/16 06:07:40;;;;;;;10.07;5.63;;;;;;;;;;5078188;28;20425;-88
2023/05/16 06:10:09;;;;;;;10.82;6.53;;;;;;;;;;5081112;28;20024;-83
2023/05/16 06:12:35;;;;;;;11.07;6.13;;;;;;;;;;5075794;28;20028;-86
2023/05/16 06:15:03;;;;;;;10.05;5.55;;;;;;;;;;5083373;28;20021;-87
2023/05/16 06:17:28;;;;;;;6.85;4.85;;;;;;;;;;5074892;28;20037;-85
2023/05/16 06:19:53;;;;;;;7.85;5.28;;;;;;;;;;5078047;28;20024;-87
2023/05/16 06:22:19;;;;;;;11.52;5.63;;;;;;;;;;5084608;28;20020;-89
2023/05/16 06:24:45;;;;;;;8.82;6.07;;;;;;;;;;5080977;28;20038;-87
2023/05/16 06:27:10;;;;;;;14.23;6.40;;;;;;;;;;5079086;28;20020;-84
2023/05/16 06:29:36;;;;;;;9.82;6.20;;;;;;;;;;5079747;28;20044;-85
2023/05/16 06:32:01;;;;;;;8.82;5.55;;;;;;;;;;5072942;28;20020;-83
2023/05/16 06:34:27;;;;;;;9.35;5.78;;;;;;;;;;5074616;28;20468;-84
2023/05/16 06:36:53;;;;;;;9.65;5.88;;;;;;;;;;5075723;28;20060;-86
2023/05/16 06:39:18;;;;;;;9.32;5.47;;;;;;;;;;5080080;28;20079;-86
2023/05/16 06:41:44;;;;;;;8.38;5.53;;;;;;;;;;5078788;28;20461;-84
2023/05/16 06:44:10;;;;;;;9.88;5.10;;;;;;;;;;5080853;28;20483;-86
2023/05/16 06:46:35;;;;;;;7.50;4.20;;;;;;;;;;5075827;28;20028;-86
2023/05/16 06:49:01;;;;;;;6.60;3.75;;;;;;;;;;5076079;28;20028;-84
2023/05/16 06:51:27;;;;;;;7.22;4.63;;;;;;;;;;5070560;28;20029;-87
2023/05/16 06:53:52;;;;;;;13.20;3.05;;;;;;;;;;5072126;28;20455;-86
2023/05/16 06:56:17;;;;;;;5.75;3.53;;;;;;;;;;5071649;28;20388;-83
2023/05/16 06:58:43;;;;;;;4.00;2.92;;;;;;;;;;5069548;28;20116;-85
2023/05/16 07:01:08;;;;;;;5.15;3.10;;;;;;;;;;5106656;27;20101;-84
2023/05/16 07:03:34;;;;;;;7.38;3.72;;;;;;;;;;5071926;28;20033;-86
2023/05/16 07:05:59;;;;;;;5.05;2.97;;;;;;;;;;5075680;28;20033;-86
2023/05/16 07:08:28;;;;;;;14.75;3.83;;;;;;;;;;5068159;28;20068;-89
2023/05/16 07:10:53;;;;;;;5.22;3.10;;;;;;;;;;5075113;28;20032;-88
2023/05/16 07:13:19;;;;;;;3.38;2.55;;;;;;;;;;5067156;28;20024;-86
2023/05/16 07:15:44;;;;;;;6.88;3.45;;;;;;;;;;5069257;28;20024;-85
2023/05/16 07:18:10;;;;;;;7.53;3.45;;;;;;;;;;5066752;28;20016;-86
2023/05/16 07:20:35;;;;;;;6.80;2.92;;;;;;;;;;5071536;28;20503;-84
2023/05/16 07:23:01;;;;;;;5.53;2.55;;;;;;;;;;5074687;28;20059;-83
2023/05/16 07:25:26;;;;;;;6.38;2.50;;;;;;;;;;5080240;28;20052;-85
2023/05/16 07:27:52;;;;;;;7.68;3.45;;;;;;;;;;5069033;28;20021;-83
2023/05/16 07:30:20;;;;;;;6.13;2.67;;;;;;;;;;5070997;28;20028;-85
2023/05/16 07:32:48;;;;;;;6.28;3.45;;;;;;;;;;5109597;28;20115;-84
2023/05/16 07:35:16;;;;;;;4.30;2.97;;;;;;;;;;5074544;28;20487;-86
2023/05/16 07:37:46;;;;;;;11.45;3.65;;;;;;;;;;5073447;28;21901;-83
2023/05/16 07:40:20;;;;;;;7.55;3.05;;;;;;;;;;5079098;28;20027;-85
2023/05/16 07:42:48;;;;;;;4.82;2.97;;;;;;;;;;5073622;28;20032;-85
2023/05/16 07:45:14;;;;;;;4.00;2.60;;;;;;;;;;5103021;28;20040;-85
2023/05/16 07:47:40;;;;;;;4.53;2.95;;;;;;;;;;5076943;28;20388;-85
2023/05/16 07:50:24;;;;;;;7.20;3.45;;;;;;;;;;5072656;28;20036;-82
2023/05/16 07:52:51;;;;;;;4.82;2.95;;;;;;;;;;5069588;28;20052;-83
2023/05/16 07:55:34;;;;;;;6.20;3.08;;;;;;;;;;5081357;28;20025;-85
2023/05/16 07:58:12;;;;;;;4.93;3.10;;;;;;;;;;5071651;28;20077;-89
2023/05/16 08:00:53;;;;;;;15.70;3.45;;;;;;;;;;5083872;28;20028;-83
2023/05/16 08:03:37;;;;;;;3.15;2.50;;;;;;;;;;5081088;28;20036;-85
2023/05/16 08:06:02;;;;;;;4.43;3.22;;;;;;;;;;5075034;28;20089;-86
2023/05/16 08:09:07;;;;;;;4.00;2.50;;;;;;;;;;5074188;28;20029;-82
2023/05/16 08:11:33;;;;;;;7.05;2.50;;;;;;;;;;5075435;28;20029;-84
2023/05/16 08:14:04;;;;;;;7.15;3.25;;;;;;;;;;5082503;28;20119;-85
2023/05/16 08:16:33;;;;;;;8.00;3.25;;;;;;;;;;5078617;28;20024;-84
2023/05/16 08:19:07;;;;;;;5.75;2.72;;;;;;;;;;5083708;28;20063;-83
2023/05/16 08:21:36;;;;;;;4.57;2.85;;;;;;;;;;5079949;28;20028;-83
2023/05/16 08:24:07;;;;;;;7.05;3.15;;;;;;;;;;5077652;28;20032;-84
2023/05/16 08:26:39;;;;;;;5.78;3.03;;;;;;;;;;5078452;28;20116;-83
2023/05/16 08:29:07;;;;;;;6.45;3.47;;;;;;;;;;5074358;28;20044;-83
2023/05/16 08:31:36;;;;;;;7.88;3.53;;;;;;;;;;5079182;28;20040;-84
2023/05/16 08:34:10;;;;;;;12.77;3.25;;;;;;;;;;5075071;28;20095;-87
2023/05/16 08:39:42;;;;;;;6.47;3.78;;;;;;;;;;5062906;28;20061;-85
2023/05/16 08:42:08;;;;;;;5.63;3.15;;;;;;;;;;5061893;28;20487;-85
2023/05/16 08:44:36;;;;;;;8.15;3.42;;;;;;;;;;5053959;28;20041;-82
2023/05/16 08:47:11;;;;;;;4.85;3.33;;;;;;;;;;5052210;28;20029;-85
2023/05/16 08:49:40;;;;;;;4.35;3.20;;;;;;;;;;5058260;28;20036;-85
2023/05/16 08:52:07;;;;;;;5.22;2.92;;;;;;;;;;5049924;28;20515;-85
2023/05/16 08:54:33;;;;;;;6.22;3.47;;;;;;;;;;5051041;28;20040;-83
2023/05/16 08:57:00;;;;;;;6.45;2.97;;;;;;;;;;5051665;28;20032;-85
2023/05/16 08:59:26;;;;;;;7.50;3.30;;;;;;;;;;5054812;28;20048;-88
2023/05/16 09:01:52;;;;;;;9.35;2.97;;;;;;;;;;5065731;28;20047;-87
2023/05/16 09:04:18;;;;;;;6.60;3.03;;;;;;;;;;5057188;28;20552;-84
2023/05/16 09:06:44;;;;;;;8.35;3.70;;;;;;;;;;5058699;28;20484;-87
2023/05/16 09:09:11;;;;;;;9.02;4.68;;;;;;;;;;5059158;28;20025;-83
2023/05/16 09:11:37;;;;;;;10.43;3.67;;;;;;;;;;5056345;28;20086;-81
2023/05/16 09:14:04;;;;;;;5.97;3.75;;;;;;;;;;5056151;28;20116;-86
2023/05/16 09:16:30;;;;;;;8.75;4.75;;;;;;;;;;5047708;28;20033;-90
2023/05/16 09:18:57;;;;;;;16.90;4.38;;;;;;;;;;5064535;28;20032;-85
2023/05/16 09:21:33;;;;;;;14.32;3.97;;;;;;;;;;5059607;28;20036;-87
2023/05/16 09:24:06;;;;;;;7.55;3.88;;;;;;;;;;5065482;28;20024;-88
2023/05/16 09:26:33;;;;;;;7.55;3.85;;;;;;;;;;5061183;28;20033;-93
2023/05/16 09:28:59;;;;;;;8.15;5.30;;;;;;;;;;5056669;28;20095;-89
2023/05/16 09:31:26;;;;;;;6.57;4.13;;;;;;;;;;5050190;28;20469;-87
2023/05/16 09:33:52;;;;;;;11.25;3.95;;;;;;;;;;5046736;28;20044;-86
2023/05/16 09:36:18;;;;;;;7.03;3.70;;;;;;;;;;5060374;28;20673;-87
2023/05/16 09:38:44;;;;;;;6.82;4.38;;;;;;;;;;5069010;28;20057;-89
2023/05/16 09:41:10;;;;;;;6.03;4.00;;;;;;;;;;5088218;28;20028;-89
2023/05/16 09:43:38;;;;;;;6.25;3.95;;;;;;;;;;5077435;28;20020;-86
2023/05/16 09:46:03;;;;;;;7.35;4.88;;;;;;;;;;5078389;28;20027;-85
2023/05/16 09:48:30;;;;;;;7.43;4.05;;;;;;;;;;5087212;28;20024;-87
2023/05/16 09:51:05;;;;;;;8.80;4.03;;;;;;;;;;5074440;28;20357;-88
2023/05/16 09:53:32;;;;;;;11.75;4.68;;;;;;;;;;5076303;28;20051;-84
2023/05/16 09:56:06;;;;;;;9.20;3.63;;;;;;;;;;5079893;28;20032;-81
2023/05/16 09:58:34;;;;;;;7.40;4.22;;;;;;;;;;5073353;28;20024;-83
2023/05/16 10:01:01;;;;;;;8.75;4.25;;;;;;;;;;5079780;28;20074;-82
2023/05/16 10:03:27;;;;;;;11.40;4.25;;;;;;;;;;5075160;28;20496;-82
2023/05/16 10:05:53;;;;;;;7.05;3.92;;;;;;;;;;5074004;28;20033;-84
2023/05/16 10:08:24;;;;;;;6.65;4.50;;;;;;;;;;5073784;28;20048;-83
2023/05/16 10:10:53;;;;;;;6.78;3.95;;;;;;;;;;5074022;28;20024;-82
2023/05/16 10:13:24;;;;;;;7.32;3.83;;;;;;;;;;5076008;28;20550;-84
2023/05/16 10:15:53;;;;;;;9.55;3.97;;;;;;;;;;5074181;28;20024;-81
2023/05/16 10:18:20;;;;;;;5.35;3.70;;;;;;;;;;5078388;28;20054;-84
2023/05/16 10:20:51;;;;;;;6.28;4.15;;;;;;;;;;5074519;28;20515;-83
2023/05/16 10:23:20;;;;;;;7.13;3.78;;;;;;;;;;5075708;28;20494;-85
2023/05/16 10:25:48;;;;;;;12.73;4.53;;;;;;;;;;5073410;28;20119;-84
2023/05/16 10:28:16;;;;;;;9.82;4.65;;;;;;;;;;5089997;28;20036;-83
2023/05/16 10:30:44;;;;;;;10.53;5.30;;;;;;;;;;5076255;28;20024;-83
2023/05/16 10:33:16;;;;;;;8.18;4.32;;;;;;;;;;5081658;28;20056;-82
2023/05/16 10:35:43;;;;;;;8.05;5.03;;;;;;;;;;5072114;28;20021;-83
2023/05/16 10:38:10;;;;;;;8.07;5.00;;;;;;;;;;5075291;28;20052;-82
2023/05/16 10:40:37;;;;;;;9.93;4.72;;;;;;;;;;5076299;28;20115;-85
2023/05/16 10:43:04;;;;;;;6.50;4.90;;;;;;;;;;5080596;28;20028;-84
2023/05/16 10:45:29;;;;;;;8.05;4.90;;;;;;;;;;5076672;28;20411;-84
2023/05/16 10:48:05;;;;;;;12.77;5.45;;;;;;;;;;5084194;28;20024;-83
2023/05/16 10:50:41;;;;;;;6.78;4.60;;;;;;;;;;5077023;28;20083;-84
2023/05/16 10:53:27;;;;;;;12.43;4.88;;;;;;;;;;5076663;28;20040;-83
2023/05/16 10:55:59;;;;;;;5.95;4.15;;;;;;;;;;5080790;28;20023;-84
2023/05/16 10:58:34;;;;;;;7.32;4.78;;;;;;;;;;5072465;28;20032;-85
2023/05/16 11:01:30;;;;;;;11.60;5.45;;;;;;;;;;5074981;28;20035;-83
2023/05/16 11:03:56;;;;;;;10.27;6.00;;;;;;;;;;5068685;28;20074;-83
2023/05/16 11:06:28;;;;;;;7.57;4.68;;;;;;;;;;5079835;28;20020;-84
2023/05/16 11:09:21;;;;;;;12.18;5.43;;;;;;;;;;5068657;28;20028;-81
2023/05/16 11:11:53;;;;;;;8.95;4.68;;;;;;;;;;5067137;28;20047;-82
2023/05/16 11:14:34;;;;;;;6.82;4.70;;;;;;;;;;5071276;28;20020;-84
2023/05/16 11:17:09;;;;;;;7.15;5.63;;;;;;;;;;5079200;28;20020;-83
2023/05/16 11:19:53;;;;;;;8.68;5.20;;;;;;;;;;5077531;28;20032;-83
2023/05/16 11:22:20;;;;;;;9.23;4.50;;;;;;;;;;5069496;28;20029;-83
2023/05/16 11:24:55;;;;;;;6.25;4.82;;;;;;;;;;5078166;28;20036;-82
2023/05/16 11:27:23;;;;;;;7.15;5.32;;;;;;;;;;5073232;28;20389;-84
2023/05/16 11:29:49;;;;;;;10.10;5.53;;;;;;;;;;5077227;28;20028;-83
2023/05/16 11:32:18;;;;;;;6.75;4.70;;;;;;;;;;5078928;28;20406;-83
2023/05/16 11:34:46;;;;;;;10.90;4.07;;;;;;;;;;5075569;28;20472;-82
2023/05/16 11:37:11;;;;;;;12.68;5.47;;;;;;;;;;5075360;28;20035;-83
2023/05/16 11:39:37;;;;;;;8.00;4.90;;;;;;;;;;5075490;28;20036;-81
2023/05/16 11:42:03;;;;;;;9.95;5.57;;;;;;;;;;5074815;28;20036;-82
2023/05/16 11:44:28;;;;;;;12.15;6.18;;;;;;;;;;5069603;28;20059;-83
2023/05/16 11:46:54;;;;;;;12.30;5.25;;;;;;;;;;5074382;28;20450;-83
2023/05/16 11:49:20;;;;;;;7.15;5.47;;;;;;;;;;5079164;28;20081;-83
2023/05/16 11:51:46;;;;;;;6.57;4.53;;;;;;;;;;5093070;28;20483;-84
2023/05/16 11:54:12;;;;;;;6.57;5.28;;;;;;;;;;5090336;28;20035;-83
2023/05/16 11:56:39;;;;;;;10.05;5.07;;;;;;;;;;5074171;28;20021;-85
2023/05/16 11:59:05;;;;;;;6.78;5.03;;;;;;;;;;5084307;28;20129;-84
2023/05/16 12:01:38;;;;;;;8.52;4.80;;;;;;;;;;5076367;28;20497;-83
2023/05/16 12:04:12;;;;;;;7.00;5.25;;;;;;;;;;5074338;28;20047;-82
2023/05/16 12:06:38;;;;;;;9.15;5.13;;;;;;;;;;5075816;28;20028;-82
2023/05/16 12:09:11;;;;;;;9.60;5.00;;;;;;;;;;5074943;28;20036;-83
2023/05/16 12:11:37;;;;;;;8.25;4.85;;;;;;;;;;5084289;28;20028;-84
2023/05/16 12:14:04;;;;;;;9.70;5.43;;;;;;;;;;5073783;28;20033;-83
2023/05/16 12:16:31;;;;;;;6.55;4.75;;;;;;;;;;5070981;28;20550;-84
2023/05/16 12:18:57;;;;;;;6.35;4.68;;;;;;;;;;5073146;28;20047;-82
2023/05/16 12:21:23;;;;;;;10.20;4.95;;;;;;;;;;5073547;28;20025;-83
2023/05/16 12:23:48;;;;;;;9.77;4.53;;;;;;;;;;5082042;28;20039;-82
2023/05/16 12:26:13;;;;;;;7.18;4.82;;;;;;;;;;5087160;28;20021;-82
2023/05/16 12:28:39;;;;;;;6.47;4.53;;;;;;;;;;5081997;28;20028;-84
2023/05/16 12:31:18;;;;;;;10.63;4.90;;;;;;;;;;5089276;28;20047;-84
2023/05/16 12:33:44;;;;;;;6.82;4.15;;;;;;;;;;5071331;28;20077;-85
2023/05/16 12:36:14;;;;;;;9.15;5.00;;;;;;;;;;5084913;28;20111;-84
2023/05/16 12:38:39;;;;;;;;;;;;;;;;;;5075546;28;20041;-84
2023/05/16 12:41:05;;;;;;;6.93;4.47;;;;;;;;;;5076896;28;19916;-84
2023/05/16 12:43:30;;;;;;;6.70;4.88;;;;;;;;;;5090121;28;20109;-85
2023/05/16 12:45:57;;;;;;;8.15;5.30;;;;;;;;;;5076101;28;20020;-86
2023/05/16 12:48:28;;;;;;;8.07;4.90;;;;;;;;;;5077669;28;20492;-84
2023/05/16 12:50:54;;;;;;;10.93;4.53;;;;;;;;;;5071500;28;20043;-83
2023/05/16 12:53:19;;;;;;;7.70;5.07;;;;;;;;;;5074790;28;20405;-84
2023/05/16 12:55:45;;;;;;;8.20;4.90;;;;;;;;;;5072950;28;20050;-83
2023/05/16 12:58:11;;;;;;;6.90;4.70;;;;;;;;;;5076077;28;20029;-84
2023/05/16 13:00:37;;;;;;;6.25;5.20;;;;;;;;;;5078621;28;20035;-84
2023/05/16 13:03:04;;;;;;;10.52;5.25;;;;;;;;;;5091408;28;20468;-83
2023/05/16 13:05:29;;;;;;;11.18;5.00;;;;;;;;;;5077493;28;20066;-83
2023/05/16 13:07:55;;;;;;;9.93;5.80;;;;;;;;;;5072307;28;20378;-83
2023/05/16 13:10:20;;;;;;;8.25;5.57;;;;;;;;;;5075866;28;20032;-83
2023/05/16 13:12:46;;;;;;;12.25;5.53;;;;;;;;;;5080203;28;20103;-84
2023/05/16 13:15:12;;;;;;;8.75;5.20;;;;;;;;;;5073279;28;20063;-83
2023/05/16 13:17:39;;;;;;;9.57;5.88;;;;;;;;;;5078807;28;20379;-83
2023/05/16 13:20:12;;;;;;;6.22;4.70;;;;;;;;;;5076309;28;20028;-84
2023/05/16 13:22:38;;;;;;;12.25;6.35;;;;;;;;;;5079999;28;20091;-83
2023/05/16 13:25:04;;;;;;;7.50;5.85;;;;;;;;;;5085659;28;20119;-87
2023/05/16 13:27:31;;;;;;;9.02;5.93;;;;;;;;;;5078481;28;20075;-86
2023/05/16 13:29:59;;;;;;;8.85;5.55;;;;;;;;;;5082551;28;20024;-84
2023/05/16 13:32:25;;;;;;;14.40;6.20;;;;;;;;;;5082191;28;20019;-89
2023/05/16 13:34:51;;;;;;;10.30;6.38;;;;;;;;;;5083841;28;20040;-85
2023/05/16 13:37:22;;;;;;;8.30;5.85;;;;;;;;;;5076021;28;20107;-84
2023/05/16 13:39:47;;;;;;;10.20;5.57;;;;;;;;;;5078024;28;20563;-84
2023/05/16 13:42:13;;;;;;;9.27;6.40;;;;;;;;;;5070834;28;20135;-87
2023/05/16 13:44:41;;;;;;;9.18;5.10;;;;;;;;;;5075811;28;20029;-84
2023/05/16 13:47:10;;;;;;;7.85;5.55;;;;;;;;;;5082785;28;20024;-84
2023/05/16 13:49:36;;;;;;;9.05;5.57;;;;;;;;;;5078016;28;20032;-86
2023/05/16 13:52:02;;;;;;;9.57;5.60;;;;;;;;;;5084423;28;20034;-85
2023/05/16 13:54:27;;;;;;;12.65;6.13;;;;;;;;;;5090226;28;20020;-84
2023/05/16 13:56:53;;;;;;;13.88;6.20;;;;;;;;;;5085605;28;20023;-86
2023/05/16 13:59:18;;;;;;;12.23;6.57;;;;;;;;;;5074986;28;20542;-83
2023/05/16 14:01:46;;;;;;;12.95;6.15;;;;;;;;;;5082068;28;20032;-83
2023/05/16 14:04:12;;;;;;;14.68;7.57;;;;;;;;;;5073654;28;20063;-88
2023/05/16 14:06:37;;;;;;;13.77;7.32;;;;;;;;;;5080052;28;20048;-86
2023/05/16 14:09:02;;;;;;;13.93;7.47;;;;;;;;;;5073383;28;20071;-86
2023/05/16 14:11:28;;;;;;;16.10;6.50;;;;;;;;;;5075158;28;20468;-88
2023/05/16 14:13:53;;;;;;;16.25;8.38;;;;;;;;;;5065328;28;20032;-88
2023/05/16 14:16:19;;;;;;;14.80;8.13;;;;;;;;;;5074290;28;20062;-87
2023/05/16 14:18:44;;;;;;;13.30;8.35;;;;;;;;;;5087617;28;20031;-86
2023/05/16 14:21:10;;;;;;;14.90;8.40;;;;;;;;;;5072848;28;20151;-86
2023/05/16 14:23:35;;;;;;;15.65;7.50;;;;;;;;;;5073747;28;20033;-85
2023/05/16 14:26:01;;;;;;;12.75;6.50;;;;;;;;;;5087159;28;20032;-86
2023/05/16 14:28:27;;;;;;;17.42;7.43;;;;;;;;;;5078252;28;20042;-88
2023/05/16 14:30:53;;;;;;;11.77;7.20;;;;;;;;;;5083998;28;20027;-87
2023/05/16 14:33:18;;;;;;;13.50;7.03;;;;;;;;;;5077928;28;20153;-86
2023/05/16 14:35:44;;;;;;;16.20;7.20;;;;;;;;;;5080512;28;20365;-86
2023/05/16 14:38:09;;;;;;;14.07;7.10;;;;;;;;;;5078295;28;20044;-85
2023/05/16 14:40:34;;;;;;;12.65;7.00;;;;;;;;;;5082601;28;20048;-86
2023/05/16 14:43:03;;;;;;;10.10;7.22;;;;;;;;;;5081200;28;20066;-85
2023/05/16 14:45:28;;;;;;;13.65;7.18;;;;;;;;;;5071193;28;20044;-86
2023/05/16 14:47:54;;;;;;;12.55;7.47;;;;;;;;;;5073660;28;20495;-84
2023/05/16 14:50:19;;;;;;;13.88;7.93;;;;;;;;;;5074579;28;20538;-85